sensor_id;sensor_type;location;lat;lon;timestamp;pressure;altitude;pressure_sealevel;temperature
24278;BMP280;12394;42.692;23.314;2023-08-20T00:00:16;95270.69;;;22.27
24278;BMP280;12394;42.692;23.314;2023-08-20T00:02:42;95265.22;;;22.30
24278;BMP280;12394;42.692;23.314;2023-08-20T00:05:09;95266.22;;;22.33
24278;BMP280;12394;42.692;23.314;2023-08-20T00:07:35;95250.72;;;22.22
24278;BMP280;12394;42.692;23.314;2023-08-20T00:10:01;95270.06;;;22.32
24278;BMP280;12394;42.692;23.314;2023-08-20T00:12:28;95268.88;;;22.33
24278;BMP280;12394;42.692;23.314;2023-08-20T00:14:57;95265.47;;;22.32
24278;BMP280;12394;42.692;23.314;2023-08-20T00:17:36;95257.34;;;22.27
24278;BMP280;12394;42.692;23.314;2023-08-20T00:20:03;95254.69;;;22.27
24278;BMP280;12394;42.692;23.314;2023-08-20T00:22:39;95267.28;;;22.26
24278;BMP280;12394;42.692;23.314;2023-08-20T00:25:05;95267.75;;;22.25
24278;BMP280;12394;42.692;23.314;2023-08-20T00:27:31;95257.09;;;22.25
24278;BMP280;12394;42.692;23.314;2023-08-20T00:29:57;95267.22;;;22.35
24278;BMP280;12394;42.692;23.314;2023-08-20T00:32:22;95270.34;;;22.34
24278;BMP280;12394;42.692;23.314;2023-08-20T00:34:48;95267.69;;;22.34
24278;BMP280;12394;42.692;23.314;2023-08-20T00:37:13;95267.22;;;22.35
24278;BMP280;12394;42.692;23.314;2023-08-20T00:39:39;95270.06;;;22.32
24278;BMP280;12394;42.692;23.314;2023-08-20T00:42:05;95257.09;;;22.25
24278;BMP280;12394;42.692;23.314;2023-08-20T00:44:31;95265.28;;;22.36
24278;BMP280;12394;42.692;23.314;2023-08-20T00:46:57;95271.09;;;22.34
24278;BMP280;12394;42.692;23.314;2023-08-20T00:49:24;95265.22;;;22.30
24278;BMP280;12394;42.692;23.314;2023-08-20T00:51:50;95269.19;;;22.35
24278;BMP280;12394;42.692;23.314;2023-08-20T00:54:15;95270.81;;;22.32
24278;BMP280;12394;42.692;23.314;2023-08-20T00:56:42;95257.09;;;22.25
24278;BMP280;12394;42.692;23.314;2023-08-20T00:59:07;95263.84;;;22.35
24278;BMP280;12394;42.692;23.314;2023-08-20T01:01:33;95264.00;;;22.31
24278;BMP280;12394;42.692;23.314;2023-08-20T01:03:59;95263.25;;;22.31
24278;BMP280;12394;42.692;23.314;2023-08-20T01:12:09;95268.94;;;22.24
24278;BMP280;12394;42.692;23.314;2023-08-20T01:14:35;95267.75;;;22.25
24278;BMP280;12394;42.692;23.314;2023-08-20T01:17:01;95261.22;;;22.26
24278;BMP280;12394;42.692;23.314;2023-08-20T01:19:27;95250.44;;;22.20
24278;BMP280;12394;42.692;23.314;2023-08-20T01:30:00;95257.09;;;22.25
24278;BMP280;12394;42.692;23.314;2023-08-20T01:32:26;95259.28;;;22.26
24278;BMP280;12394;42.692;23.314;2023-08-20T01:34:52;95244.09;;;22.17
24278;BMP280;12394;42.692;23.314;2023-08-20T01:37:18;95256.47;;;22.30
24278;BMP280;12394;42.692;23.314;2023-08-20T01:39:44;95249.22;;;22.30
24278;BMP280;12394;42.692;23.314;2023-08-20T01:42:09;95236.38;;;22.20
24278;BMP280;12394;42.692;23.314;2023-08-20T01:44:35;95249.66;;;22.29
24278;BMP280;12394;42.692;23.314;2023-08-20T01:47:00;95241.84;;;22.25
24278;BMP280;12394;42.692;23.314;2023-08-20T01:49:25;95216.44;;;22.15
24278;BMP280;12394;42.692;23.314;2023-08-20T01:51:51;95227.47;;;22.23
24278;BMP280;12394;42.692;23.314;2023-08-20T01:54:16;95236.31;;;22.29
24278;BMP280;12394;42.692;23.314;2023-08-20T01:56:42;95231.84;;;22.35
24278;BMP280;12394;42.692;23.314;2023-08-20T01:59:07;95223.75;;;22.29
24278;BMP280;12394;42.692;23.314;2023-08-20T02:01:33;95226.22;;;22.33
24278;BMP280;12394;42.692;23.314;2023-08-20T02:03:59;95223.13;;;22.34
24278;BMP280;12394;42.692;23.314;2023-08-20T02:06:24;95218.13;;;22.27
24278;BMP280;12394;42.692;23.314;2023-08-20T02:08:50;95220.16;;;22.32
24278;BMP280;12394;42.692;23.314;2023-08-20T02:11:15;95216.19;;;22.28
24278;BMP280;12394;42.692;23.314;2023-08-20T02:13:41;95217.38;;;22.27
24278;BMP280;12394;42.692;23.314;2023-08-20T02:16:06;95220.66;;;22.22
24278;BMP280;12394;42.692;23.314;2023-08-20T02:18:32;95207.06;;;22.20
24278;BMP280;12394;42.692;23.314;2023-08-20T02:20:57;95212.66;;;22.22
24278;BMP280;12394;42.692;23.314;2023-08-20T02:23:23;95207.97;;;22.16
24278;BMP280;12394;42.692;23.314;2023-08-20T02:25:49;95212.09;;;22.17
24278;BMP280;12394;42.692;23.314;2023-08-20T02:28:14;95209.50;;;22.08
24278;BMP280;12394;42.692;23.314;2023-08-20T02:30:44;95210.72;;;22.07
24278;BMP280;12394;42.692;23.314;2023-08-20T02:33:10;95205.69;;;22.00
24278;BMP280;12394;42.692;23.314;2023-08-20T02:35:39;95209.50;;;22.08
24278;BMP280;12394;42.692;23.314;2023-08-20T02:38:06;95210.13;;;22.03
24278;BMP280;12394;42.692;23.314;2023-08-20T02:40:31;95211.03;;;22.00
24278;BMP280;12394;42.692;23.314;2023-08-20T02:42:57;95210.75;;;21.98
24278;BMP280;12394;42.692;23.314;2023-08-20T02:45:23;95212.22;;;21.90
24278;BMP280;12394;42.692;23.314;2023-08-20T02:47:49;95209.88;;;21.92
24278;BMP280;12394;42.692;23.314;2023-08-20T02:50:15;95224.09;;;21.98
24278;BMP280;12394;42.692;23.314;2023-08-20T02:52:42;95223.97;;;21.93
24278;BMP280;12394;42.692;23.314;2023-08-20T02:55:08;95189.56;;;21.71
24278;BMP280;12394;42.692;23.314;2023-08-20T02:57:34;95211.53;;;21.81
24278;BMP280;12394;42.692;23.314;2023-08-20T02:59:59;95221.88;;;21.88
24278;BMP280;12394;42.692;23.314;2023-08-20T03:02:25;95238.03;;;21.93
24278;BMP280;12394;42.692;23.314;2023-08-20T03:04:50;95229.13;;;21.87
24278;BMP280;12394;42.692;23.314;2023-08-20T03:07:15;95236.81;;;21.94
24278;BMP280;12394;42.692;23.314;2023-08-20T03:09:41;95241.53;;;21.90
24278;BMP280;12394;42.692;23.314;2023-08-20T03:12:06;95239.78;;;21.87
24278;BMP280;12394;42.692;23.314;2023-08-20T03:14:32;95240.09;;;21.89
24278;BMP280;12394;42.692;23.314;2023-08-20T03:16:57;95241.84;;;21.92
24278;BMP280;12394;42.692;23.314;2023-08-20T03:19:23;95236.22;;;21.90
24278;BMP280;12394;42.692;23.314;2023-08-20T03:21:48;95243.94;;;21.88
24278;BMP280;12394;42.692;23.314;2023-08-20T03:24:14;95232.75;;;21.75
24278;BMP280;12394;42.692;23.314;2023-08-20T03:26:39;95241.31;;;21.79
24278;BMP280;12394;42.692;23.314;2023-08-20T03:29:04;95241.00;;;21.77
24278;BMP280;12394;42.692;23.314;2023-08-20T03:31:31;95238.97;;;21.72
24278;BMP280;12394;42.692;23.314;2023-08-20T03:33:56;95236.28;;;21.72
24278;BMP280;12394;42.692;23.314;2023-08-20T03:36:21;95233.63;;;21.72
24278;BMP280;12394;42.692;23.314;2023-08-20T03:38:47;95228.03;;;21.70
24278;BMP280;12394;42.692;23.314;2023-08-20T03:41:12;95233.22;;;21.64
24278;BMP280;12394;42.692;23.314;2023-08-20T03:43:38;95221.00;;;21.49
24278;BMP280;12394;42.692;23.314;2023-08-20T03:46:03;95231.50;;;21.52
24278;BMP280;12394;42.692;23.314;2023-08-20T03:48:29;95225.16;;;21.50
24278;BMP280;12394;42.692;23.314;2023-08-20T03:50:54;95222.81;;;21.43
24278;BMP280;12394;42.692;23.314;2023-08-20T03:53:20;95223.97;;;21.51
24278;BMP280;12394;42.692;23.314;2023-08-20T03:55:49;95221.91;;;21.46
24278;BMP280;12394;42.692;23.314;2023-08-20T03:58:15;95217.66;;;21.39
24278;BMP280;12394;42.692;23.314;2023-08-20T04:00:41;95211.47;;;21.33
24278;BMP280;12394;42.692;23.314;2023-08-20T04:03:06;95221.78;;;21.40
24278;BMP280;12394;42.692;23.314;2023-08-20T04:05:38;95218.22;;;21.43
24278;BMP280;12394;42.692;23.314;2023-08-20T04:08:05;95226.50;;;21.45
24278;BMP280;12394;42.692;23.314;2023-08-20T04:10:31;95221.16;;;21.45
24278;BMP280;12394;42.692;23.314;2023-08-20T04:12:58;95221.91;;;21.46
24278;BMP280;12394;42.692;23.314;2023-08-20T04:15:23;95225.16;;;21.50
24278;BMP280;12394;42.692;23.314;2023-08-20T04:17:49;95222.47;;;21.50
24278;BMP280;12394;42.692;23.314;2023-08-20T04:20:15;95217.91;;;21.50
24278;BMP280;12394;42.692;23.314;2023-08-20T04:22:40;95207.28;;;21.41
24278;BMP280;12394;42.692;23.314;2023-08-20T04:25:07;95227.78;;;21.59
24278;BMP280;12394;42.692;23.314;2023-08-20T04:27:33;95224.22;;;21.62
24278;BMP280;12394;42.692;23.314;2023-08-20T04:29:58;95229.56;;;21.62
24278;BMP280;12394;42.692;23.314;2023-08-20T04:32:23;95231.75;;;21.63
24278;BMP280;12394;42.692;23.314;2023-08-20T04:34:49;95221.84;;;21.64
24278;BMP280;12394;42.692;23.314;2023-08-20T04:37:18;95218.31;;;21.58
24278;BMP280;12394;42.692;23.314;2023-08-20T04:39:44;95226.56;;;21.69
24278;BMP280;12394;42.692;23.314;2023-08-20T04:42:09;95225.78;;;21.78
24278;BMP280;12394;42.692;23.314;2023-08-20T04:44:35;95224.72;;;21.84
24278;BMP280;12394;42.692;23.314;2023-08-20T04:47:00;95229.31;;;21.84
24278;BMP280;12394;42.692;23.314;2023-08-20T04:49:26;95231.47;;;21.94
24278;BMP280;12394;42.692;23.314;2023-08-20T04:51:54;95230.72;;;22.03
24278;BMP280;12394;42.692;23.314;2023-08-20T04:54:19;95217.84;;;22.01
24278;BMP280;12394;42.692;23.314;2023-08-20T04:56:45;95224.75;;;22.08
24278;BMP280;12394;42.692;23.314;2023-08-20T04:59:10;95227.53;;;22.13
24278;BMP280;12394;42.692;23.314;2023-08-20T05:01:37;95220.03;;;22.27
24278;BMP280;12394;42.692;23.314;2023-08-20T05:04:03;95239.31;;;22.45
24278;BMP280;12394;42.692;23.314;2023-08-20T05:06:29;95237.50;;;22.51
24278;BMP280;12394;42.692;23.314;2023-08-20T05:08:54;95234.94;;;22.57
24278;BMP280;12394;42.692;23.314;2023-08-20T05:11:19;95238.13;;;22.70
24278;BMP280;12394;42.692;23.314;2023-08-20T05:13:47;95245.44;;;22.84
24278;BMP280;12394;42.692;23.314;2023-08-20T05:16:12;95245.50;;;22.90
24278;BMP280;12394;42.692;23.314;2023-08-20T05:18:38;95239.63;;;23.00
24278;BMP280;12394;42.692;23.314;2023-08-20T05:21:03;95240.94;;;23.05
24278;BMP280;12394;42.692;23.314;2023-08-20T05:23:29;95255.47;;;23.19
24278;BMP280;12394;42.692;23.314;2023-08-20T05:25:54;95254.94;;;23.29
24278;BMP280;12394;42.692;23.314;2023-08-20T05:28:19;95240.56;;;23.27
24278;BMP280;12394;42.692;23.314;2023-08-20T05:30:54;95253.47;;;23.43
24278;BMP280;12394;42.692;23.314;2023-08-20T05:33:20;95252.84;;;23.48
24278;BMP280;12394;42.692;23.314;2023-08-20T05:35:45;95254.94;;;23.59
24278;BMP280;12394;42.692;23.314;2023-08-20T05:38:11;95241.56;;;23.59
24278;BMP280;12394;42.692;23.314;2023-08-20T05:40:36;95264.66;;;23.76
24278;BMP280;12394;42.692;23.314;2023-08-20T05:43:02;95260.59;;;23.81
24278;BMP280;12394;42.692;23.314;2023-08-20T05:45:27;95261.44;;;23.87
24278;BMP280;12394;42.692;23.314;2023-08-20T05:47:53;95270.31;;;23.99
24278;BMP280;12394;42.692;23.314;2023-08-20T05:50:18;95257.81;;;23.90
24278;BMP280;12394;42.692;23.314;2023-08-20T05:52:43;95266.09;;;24.07
24278;BMP280;12394;42.692;23.314;2023-08-20T05:55:09;95267.16;;;24.15
24278;BMP280;12394;42.692;23.314;2023-08-20T05:57:35;95258.31;;;24.09
24278;BMP280;12394;42.692;23.314;2023-08-20T06:00:03;95223.25;;;24.01
24278;BMP280;12394;42.692;23.314;2023-08-20T06:02:29;95255.72;;;24.29
24278;BMP280;12394;42.692;23.314;2023-08-20T06:04:55;95248.34;;;24.24
24278;BMP280;12394;42.692;23.314;2023-08-20T06:07:21;95259.16;;;24.35
24278;BMP280;12394;42.692;23.314;2023-08-20T06:09:46;95260.41;;;24.34
24278;BMP280;12394;42.692;23.314;2023-08-20T06:12:12;95261.78;;;24.50
24278;BMP280;12394;42.692;23.314;2023-08-20T06:14:37;95264.94;;;24.48
24278;BMP280;12394;42.692;23.314;2023-08-20T06:17:03;95260.78;;;24.47
24278;BMP280;12394;42.692;23.314;2023-08-20T06:19:28;95223.22;;;24.36
24278;BMP280;12394;42.692;23.314;2023-08-20T06:21:54;95266.66;;;24.71
24278;BMP280;12394;42.692;23.314;2023-08-20T06:24:20;95276.84;;;24.88
24278;BMP280;12394;42.692;23.314;2023-08-20T06:26:45;95268.00;;;25.02
24278;BMP280;12394;42.692;23.314;2023-08-20T06:29:10;95269.34;;;25.17
24278;BMP280;12394;42.692;23.314;2023-08-20T06:31:36;95262.38;;;25.26
24278;BMP280;12394;42.692;23.314;2023-08-20T06:34:01;95262.81;;;25.50
24278;BMP280;12394;42.692;23.314;2023-08-20T06:36:27;95264.03;;;25.75
24278;BMP280;12394;42.692;23.314;2023-08-20T06:38:53;95268.75;;;25.91
24278;BMP280;12394;42.692;23.314;2023-08-20T06:41:18;95266.94;;;26.13
24278;BMP280;12394;42.692;23.314;2023-08-20T06:43:43;95268.97;;;26.24
24278;BMP280;12394;42.692;23.314;2023-08-20T06:46:09;95274.28;;;26.61
24278;BMP280;12394;42.692;23.314;2023-08-20T06:48:34;95266.47;;;26.69
24278;BMP280;12394;42.692;23.314;2023-08-20T06:51:09;95273.41;;;26.92
24278;BMP280;12394;42.692;23.314;2023-08-20T06:53:35;95276.16;;;27.25
24278;BMP280;12394;42.692;23.314;2023-08-20T06:56:01;95266.91;;;27.54
24278;BMP280;12394;42.692;23.314;2023-08-20T06:58:26;95273.75;;;27.89
24278;BMP280;12394;42.692;23.314;2023-08-20T07:00:52;95280.09;;;28.13
24278;BMP280;12394;42.692;23.314;2023-08-20T07:03:17;95273.34;;;28.59
24278;BMP280;12394;42.692;23.314;2023-08-20T07:05:43;95284.56;;;28.80
24278;BMP280;12394;42.692;23.314;2023-08-20T07:08:08;95278.19;;;29.24
24278;BMP280;12394;42.692;23.314;2023-08-20T07:10:33;95275.47;;;29.65
24278;BMP280;12394;42.692;23.314;2023-08-20T07:12:59;95276.38;;;30.02
24278;BMP280;12394;42.692;23.314;2023-08-20T07:15:24;95272.38;;;30.33
24278;BMP280;12394;42.692;23.314;2023-08-20T07:17:50;95269.25;;;30.91
24278;BMP280;12394;42.692;23.314;2023-08-20T07:20:15;95271.31;;;31.54
24278;BMP280;12394;42.692;23.314;2023-08-20T07:22:40;95259.16;;;32.58
24278;BMP280;12394;42.692;23.314;2023-08-20T07:25:08;95276.88;;;33.74
24278;BMP280;12394;42.692;23.314;2023-08-20T07:27:33;95273.19;;;34.42
24278;BMP280;12394;42.692;23.314;2023-08-20T07:29:59;95272.22;;;35.11
24278;BMP280;12394;42.692;23.314;2023-08-20T07:32:24;95285.38;;;35.43
24278;BMP280;12394;42.692;23.314;2023-08-20T07:34:49;95277.41;;;35.98
24278;BMP280;12394;42.692;23.314;2023-08-20T07:37:15;95261.41;;;36.17
24278;BMP280;12394;42.692;23.314;2023-08-20T07:39:41;95274.50;;;35.73
24278;BMP280;12394;42.692;23.314;2023-08-20T07:42:06;95273.06;;;34.98
24278;BMP280;12394;42.692;23.314;2023-08-20T07:44:31;95273.00;;;35.49
24278;BMP280;12394;42.692;23.314;2023-08-20T07:46:57;95276.69;;;35.82
24278;BMP280;12394;42.692;23.314;2023-08-20T07:49:22;95266.44;;;36.43
24278;BMP280;12394;42.692;23.314;2023-08-20T07:51:48;95267.34;;;36.61
24278;BMP280;12394;42.692;23.314;2023-08-20T07:54:17;95269.84;;;36.74
24278;BMP280;12394;42.692;23.314;2023-08-20T07:56:42;95270.06;;;36.61
24278;BMP280;12394;42.692;23.314;2023-08-20T07:59:08;95259.09;;;36.76
24278;BMP280;12394;42.692;23.314;2023-08-20T08:01:33;95262.41;;;37.39
24278;BMP280;12394;42.692;23.314;2023-08-20T08:03:59;95266.75;;;37.92
24278;BMP280;12394;42.692;23.314;2023-08-20T08:06:24;95274.13;;;38.24
24278;BMP280;12394;42.692;23.314;2023-08-20T08:08:49;95275.81;;;38.71
24278;BMP280;12394;42.692;23.314;2023-08-20T08:11:15;95272.03;;;39.01
24278;BMP280;12394;42.692;23.314;2023-08-20T08:13:40;95264.94;;;39.51
24278;BMP280;12394;42.692;23.314;2023-08-20T08:16:06;95266.69;;;40.03
24278;BMP280;12394;42.692;23.314;2023-08-20T08:18:31;95270.50;;;40.36
24278;BMP280;12394;42.692;23.314;2023-08-20T08:20:57;95263.94;;;39.93
24278;BMP280;12394;42.692;23.314;2023-08-20T08:23:22;95268.41;;;39.62
24278;BMP280;12394;42.692;23.314;2023-08-20T08:25:48;95267.06;;;39.43
24278;BMP280;12394;42.692;23.314;2023-08-20T08:28:13;95263.19;;;39.46
24278;BMP280;12394;42.692;23.314;2023-08-20T08:30:39;95269.91;;;40.18
24278;BMP280;12394;42.692;23.314;2023-08-20T08:33:05;95266.59;;;40.49
24278;BMP280;12394;42.692;23.314;2023-08-20T08:35:30;95261.56;;;40.74
24278;BMP280;12394;42.692;23.314;2023-08-20T08:37:56;95273.19;;;41.63
24278;BMP280;12394;42.692;23.314;2023-08-20T08:40:26;95266.47;;;41.45
24278;BMP280;12394;42.692;23.314;2023-08-20T08:42:53;95251.72;;;42.66
24278;BMP280;12394;42.692;23.314;2023-08-20T08:45:19;95251.44;;;42.29
24278;BMP280;12394;42.692;23.314;2023-08-20T08:47:45;95262.28;;;42.69
24278;BMP280;12394;42.692;23.314;2023-08-20T08:50:11;95241.34;;;43.32
24278;BMP280;12394;42.692;23.314;2023-08-20T08:52:37;95262.41;;;44.09
24278;BMP280;12394;42.692;23.314;2023-08-20T08:55:05;95253.47;;;45.35
24278;BMP280;12394;42.692;23.314;2023-08-20T08:57:33;95261.94;;;45.25
24278;BMP280;12394;42.692;23.314;2023-08-20T08:59:58;95256.19;;;45.21
24278;BMP280;12394;42.692;23.314;2023-08-20T09:02:24;95251.59;;;46.78
24278;BMP280;12394;42.692;23.314;2023-08-20T09:04:50;95247.38;;;47.22
24278;BMP280;12394;42.692;23.314;2023-08-20T09:07:15;95255.59;;;47.04
24278;BMP280;12394;42.692;23.314;2023-08-20T09:09:45;95243.97;;;47.70
24278;BMP280;12394;42.692;23.314;2023-08-20T09:12:15;95253.88;;;47.76
24278;BMP280;12394;42.692;23.314;2023-08-20T09:14:45;95249.19;;;47.47
24278;BMP280;12394;42.692;23.314;2023-08-20T09:17:12;95252.16;;;47.84
24278;BMP280;12394;42.692;23.314;2023-08-20T09:19:37;95242.84;;;47.93
24278;BMP280;12394;42.692;23.314;2023-08-20T09:22:03;95249.38;;;48.86
24278;BMP280;12394;42.692;23.314;2023-08-20T09:24:40;95247.22;;;49.03
24278;BMP280;12394;42.692;23.314;2023-08-20T09:27:07;95252.22;;;49.63
24278;BMP280;12394;42.692;23.314;2023-08-20T09:29:34;95249.16;;;49.75
24278;BMP280;12394;42.692;23.314;2023-08-20T09:32:17;95237.63;;;50.26
24278;BMP280;12394;42.692;23.314;2023-08-20T09:34:43;95230.38;;;50.82
24278;BMP280;12394;42.692;23.314;2023-08-20T09:37:13;95233.38;;;52.45
24278;BMP280;12394;42.692;23.314;2023-08-20T09:39:39;95241.56;;;52.37
24278;BMP280;12394;42.692;23.314;2023-08-20T09:42:05;95227.72;;;53.75
24278;BMP280;12394;42.692;23.314;2023-08-20T09:44:36;95235.13;;;54.38
24278;BMP280;12394;42.692;23.314;2023-08-20T09:47:05;95229.56;;;53.26
24278;BMP280;12394;42.692;23.314;2023-08-20T09:49:35;95222.22;;;53.81
24278;BMP280;12394;42.692;23.314;2023-08-20T09:52:03;95224.97;;;52.75
24278;BMP280;12394;42.692;23.314;2023-08-20T09:57:01;95208.81;;;50.39
24278;BMP280;12394;42.692;23.314;2023-08-20T09:59:28;95222.19;;;50.66
24278;BMP280;12394;42.692;23.314;2023-08-20T10:01:54;95213.56;;;50.56
24278;BMP280;12394;42.692;23.314;2023-08-20T10:04:21;95205.72;;;50.29
24278;BMP280;12394;42.692;23.314;2023-08-20T10:06:47;95209.88;;;50.73
24278;BMP280;12394;42.692;23.314;2023-08-20T10:09:13;95223.63;;;49.41
24278;BMP280;12394;42.692;23.314;2023-08-20T10:11:39;95219.34;;;49.38
24278;BMP280;12394;42.692;23.314;2023-08-20T10:14:05;95220.19;;;50.04
24278;BMP280;12394;42.692;23.314;2023-08-20T10:16:33;95227.28;;;49.28
24278;BMP280;12394;42.692;23.314;2023-08-20T10:19:05;95210.31;;;50.20
24278;BMP280;12394;42.692;23.314;2023-08-20T10:21:31;95211.00;;;49.38
24278;BMP280;12394;42.692;23.314;2023-08-20T10:23:57;95225.28;;;49.90
24278;BMP280;12394;42.692;23.314;2023-08-20T10:26:22;95208.94;;;50.21
24278;BMP280;12394;42.692;23.314;2023-08-20T10:28:49;95215.22;;;50.00
24278;BMP280;12394;42.692;23.314;2023-08-20T10:31:16;95229.47;;;49.49
24278;BMP280;12394;42.692;23.314;2023-08-20T10:33:49;95207.97;;;49.12
24278;BMP280;12394;42.692;23.314;2023-08-20T10:36:19;95211.25;;;49.07
24278;BMP280;12394;42.692;23.314;2023-08-20T10:38:54;95202.72;;;48.65
24278;BMP280;12394;42.692;23.314;2023-08-20T10:41:30;95167.00;;;48.22
24278;BMP280;12394;42.692;23.314;2023-08-20T10:43:59;95188.88;;;47.47
24278;BMP280;12394;42.692;23.314;2023-08-20T10:46:27;95191.69;;;46.71
24278;BMP280;12394;42.692;23.314;2023-08-20T10:49:02;95188.78;;;45.67
24278;BMP280;12394;42.692;23.314;2023-08-20T10:51:31;95155.09;;;44.38
24278;BMP280;12394;42.692;23.314;2023-08-20T10:56:47;95184.56;;;42.26
24278;BMP280;12394;42.692;23.314;2023-08-20T11:01:45;95172.47;;;40.36
24278;BMP280;12394;42.692;23.314;2023-08-20T11:04:11;95183.94;;;39.68
24278;BMP280;12394;42.692;23.314;2023-08-20T11:06:38;95161.00;;;39.17
24278;BMP280;12394;42.692;23.314;2023-08-20T11:09:04;95182.72;;;38.79
24278;BMP280;12394;42.692;23.314;2023-08-20T11:11:31;95165.91;;;38.04
24278;BMP280;12394;42.692;23.314;2023-08-20T11:13:57;95167.66;;;37.92
24278;BMP280;12394;42.692;23.314;2023-08-20T11:16:22;95168.81;;;37.47
24278;BMP280;12394;42.692;23.314;2023-08-20T11:18:48;95160.13;;;36.83
24278;BMP280;12394;42.692;23.314;2023-08-20T11:21:13;95170.19;;;36.33
24278;BMP280;12394;42.692;23.314;2023-08-20T11:23:39;95172.00;;;36.31
24278;BMP280;12394;42.692;23.314;2023-08-20T11:26:07;95167.50;;;36.18
24278;BMP280;12394;42.692;23.314;2023-08-20T11:28:33;95172.22;;;36.18
24278;BMP280;12394;42.692;23.314;2023-08-20T11:31:00;95160.78;;;36.04
24278;BMP280;12394;42.692;23.314;2023-08-20T11:33:26;95132.72;;;35.63
24278;BMP280;12394;42.692;23.314;2023-08-20T11:35:52;95116.06;;;35.52
24278;BMP280;12394;42.692;23.314;2023-08-20T11:38:20;95130.59;;;35.47
24278;BMP280;12394;42.692;23.314;2023-08-20T11:40:45;95154.72;;;35.35
24278;BMP280;12394;42.692;23.314;2023-08-20T11:43:11;95158.19;;;35.20
24278;BMP280;12394;42.692;23.314;2023-08-20T11:45:49;95145.22;;;34.98
24278;BMP280;12394;42.692;23.314;2023-08-20T11:48:16;95153.59;;;35.00
24278;BMP280;12394;42.692;23.314;2023-08-20T11:50:42;95149.41;;;34.99
24278;BMP280;12394;42.692;23.314;2023-08-20T11:53:09;95146.16;;;35.08
24278;BMP280;12394;42.692;23.314;2023-08-20T11:55:35;95157.59;;;35.07
24278;BMP280;12394;42.692;23.314;2023-08-20T11:58:00;95153.91;;;34.81
24278;BMP280;12394;42.692;23.314;2023-08-20T12:00:27;95143.03;;;34.74
24278;BMP280;12394;42.692;23.314;2023-08-20T12:02:54;95135.78;;;34.69
24278;BMP280;12394;42.692;23.314;2023-08-20T12:05:26;95153.38;;;34.91
24278;BMP280;12394;42.692;23.314;2023-08-20T12:08:03;95146.84;;;34.86
24278;BMP280;12394;42.692;23.314;2023-08-20T12:10:30;95138.34;;;34.90
24278;BMP280;12394;42.692;23.314;2023-08-20T12:12:57;95141.22;;;34.76
24278;BMP280;12394;42.692;23.314;2023-08-20T12:15:24;95140.41;;;34.46
24278;BMP280;12394;42.692;23.314;2023-08-20T12:18:04;95133.25;;;34.20
24278;BMP280;12394;42.692;23.314;2023-08-20T12:20:31;95118.69;;;34.10
24278;BMP280;12394;42.692;23.314;2023-08-20T12:23:02;95128.72;;;34.22
24278;BMP280;12394;42.692;23.314;2023-08-20T12:25:31;95106.69;;;33.98
24278;BMP280;12394;42.692;23.314;2023-08-20T12:27:57;95128.72;;;34.22
24278;BMP280;12394;42.692;23.314;2023-08-20T12:30:22;95127.63;;;34.25
24278;BMP280;12394;42.692;23.314;2023-08-20T12:32:48;95120.41;;;34.28
24278;BMP280;12394;42.692;23.314;2023-08-20T12:35:13;95128.22;;;34.31
24278;BMP280;12394;42.692;23.314;2023-08-20T12:37:39;95129.09;;;34.26
24278;BMP280;12394;42.692;23.314;2023-08-20T12:40:05;95091.28;;;33.92
24278;BMP280;12394;42.692;23.314;2023-08-20T12:42:36;95112.31;;;34.07
24278;BMP280;12394;42.692;23.314;2023-08-20T12:45:03;95089.41;;;33.80
24278;BMP280;12394;42.692;23.314;2023-08-20T12:47:28;95122.28;;;34.05
24278;BMP280;12394;42.692;23.314;2023-08-20T12:49:54;95106.28;;;33.93
24278;BMP280;12394;42.692;23.314;2023-08-20T12:52:19;95123.41;;;34.09
24278;BMP280;12394;42.692;23.314;2023-08-20T12:54:45;95116.34;;;34.14
24278;BMP280;12394;42.692;23.314;2023-08-20T12:57:10;95115.97;;;34.10
24278;BMP280;12394;42.692;23.314;2023-08-20T12:59:35;95117.97;;;34.09
24278;BMP280;12394;42.692;23.314;2023-08-20T13:02:01;95120.47;;;34.07
24278;BMP280;12394;42.692;23.314;2023-08-20T13:04:28;95098.72;;;34.00
24278;BMP280;12394;42.692;23.314;2023-08-20T13:06:53;95108.34;;;34.08
24278;BMP280;12394;42.692;23.314;2023-08-20T13:09:19;95116.13;;;34.04
24278;BMP280;12394;42.692;23.314;2023-08-20T13:11:47;95100.56;;;34.05
24278;BMP280;12394;42.692;23.314;2023-08-20T13:14:13;95119.78;;;34.14
24278;BMP280;12394;42.692;23.314;2023-08-20T13:16:38;95112.06;;;34.18
24278;BMP280;12394;42.692;23.314;2023-08-20T13:19:04;95110.91;;;34.06
24278;BMP280;12394;42.692;23.314;2023-08-20T13:21:30;95107.31;;;34.11
24278;BMP280;12394;42.692;23.314;2023-08-20T13:23:56;95102.19;;;34.08
24278;BMP280;12394;42.692;23.314;2023-08-20T13:26:21;95099.66;;;34.02
24278;BMP280;12394;42.692;23.314;2023-08-20T13:28:48;95099.25;;;33.98
24278;BMP280;12394;42.692;23.314;2023-08-20T13:31:13;95100.53;;;33.97
24278;BMP280;12394;42.692;23.314;2023-08-20T13:33:39;95093.94;;;33.85
24278;BMP280;12394;42.692;23.314;2023-08-20T13:36:05;95091.56;;;33.74
24278;BMP280;12394;42.692;23.314;2023-08-20T13:38:32;95094.44;;;33.76
24278;BMP280;12394;42.692;23.314;2023-08-20T13:40:57;95072.25;;;33.57
24278;BMP280;12394;42.692;23.314;2023-08-20T13:43:23;95105.16;;;33.81
24278;BMP280;12394;42.692;23.314;2023-08-20T13:45:49;95098.03;;;33.71
24278;BMP280;12394;42.692;23.314;2023-08-20T13:48:14;95105.69;;;33.80
24278;BMP280;12394;42.692;23.314;2023-08-20T13:50:40;95106.19;;;33.71
24278;BMP280;12394;42.692;23.314;2023-08-20T13:53:05;95065.66;;;33.44
24278;BMP280;12394;42.692;23.314;2023-08-20T13:55:31;95103.81;;;33.67
24278;BMP280;12394;42.692;23.314;2023-08-20T13:57:57;95100.50;;;33.61
24278;BMP280;12394;42.692;23.314;2023-08-20T14:00:22;95109.03;;;33.65
24278;BMP280;12394;42.692;23.314;2023-08-20T14:02:48;95102.03;;;33.70
24278;BMP280;12394;42.692;23.314;2023-08-20T14:05:13;95088.00;;;33.58
24278;BMP280;12394;42.692;23.314;2023-08-20T14:07:38;95097.34;;;33.70
24278;BMP280;12394;42.692;23.314;2023-08-20T14:10:05;95103.09;;;33.67
24278;BMP280;12394;42.692;23.314;2023-08-20T14:12:31;95099.97;;;33.63